sensor_id;sensor_type;location;lat;lon;timestamp;temperature;humidity
23311;DHT22;11828;51.508;18.118;2024-02-16T00:01:44;23.70;41.20
23311;DHT22;11828;51.508;18.118;2024-02-16T00:04:11;23.60;41.30
23311;DHT22;11828;51.508;18.118;2024-02-16T00:06:38;23.50;41.80
23311;DHT22;11828;51.508;18.118;2024-02-16T00:09:05;23.20;42.10
23311;DHT22;11828;51.508;18.118;2024-02-16T00:11:31;23.00;42.50
23311;DHT22;11828;51.508;18.118;2024-02-16T00:13:58;23.00;42.80
23311;DHT22;11828;51.508;18.118;2024-02-16T00:16:26;23.00;42.90
23311;DHT22;11828;51.508;18.118;2024-02-16T00:18:52;22.90;42.90
23311;DHT22;11828;51.508;18.118;2024-02-16T00:21:19;22.90;42.90
23311;DHT22;11828;51.508;18.118;2024-02-16T00:23:46;22.80;43.00
23311;DHT22;11828;51.508;18.118;2024-02-16T00:26:13;22.80;43.10
23311;DHT22;11828;51.508;18.118;2024-02-16T00:28:39;22.90;43.00
23311;DHT22;11828;51.508;18.118;2024-02-16T00:31:07;22.90;43.00
23311;DHT22;11828;51.508;18.118;2024-02-16T00:33:34;22.90;43.00
23311;DHT22;11828;51.508;18.118;2024-02-16T00:36:01;22.90;42.80
23311;DHT22;11828;51.508;18.118;2024-02-16T00:38:27;23.00;42.70
23311;DHT22;11828;51.508;18.118;2024-02-16T00:40:54;24.00;42.80
23311;DHT22;11828;51.508;18.118;2024-02-16T00:43:24;23.00;42.20
23311;DHT22;11828;51.508;18.118;2024-02-16T00:45:51;23.00;42.10
23311;DHT22;11828;51.508;18.118;2024-02-16T00:48:18;23.10;42.10
23311;DHT22;11828;51.508;18.118;2024-02-16T00:50:45;23.00;42.00
23311;DHT22;11828;51.508;18.118;2024-02-16T00:53:11;22.90;42.20
23311;DHT22;11828;51.508;18.118;2024-02-16T00:55:38;22.80;42.40
23311;DHT22;11828;51.508;18.118;2024-02-16T00:58:07;22.80;42.50
23311;DHT22;11828;51.508;18.118;2024-02-16T01:00:34;22.80;42.50
23311;DHT22;11828;51.508;18.118;2024-02-16T01:03:01;22.70;42.50
23311;DHT22;11828;51.508;18.118;2024-02-16T01:05:28;22.70;42.50
23311;DHT22;11828;51.508;18.118;2024-02-16T01:07:55;22.70;42.50
23311;DHT22;11828;51.508;18.118;2024-02-16T01:10:22;22.80;42.60
23311;DHT22;11828;51.508;18.118;2024-02-16T01:12:49;22.80;42.60
23311;DHT22;11828;51.508;18.118;2024-02-16T01:15:18;22.80;42.50
23311;DHT22;11828;51.508;18.118;2024-02-16T01:17:44;22.70;42.70
23311;DHT22;11828;51.508;18.118;2024-02-16T01:20:11;22.70;42.80
23311;DHT22;11828;51.508;18.118;2024-02-16T01:22:39;22.50;43.00
23311;DHT22;11828;51.508;18.118;2024-02-16T01:25:07;22.50;43.00
23311;DHT22;11828;51.508;18.118;2024-02-16T01:27:37;22.60;43.00
23311;DHT22;11828;51.508;18.118;2024-02-16T01:30:04;22.70;42.70
23311;DHT22;11828;51.508;18.118;2024-02-16T01:32:32;22.70;42.40
23311;DHT22;11828;51.508;18.118;2024-02-16T01:35:00;22.60;42.50
23311;DHT22;11828;51.508;18.118;2024-02-16T01:37:27;22.60;42.50
23311;DHT22;11828;51.508;18.118;2024-02-16T01:39:53;22.50;42.70
23311;DHT22;11828;51.508;18.118;2024-02-16T01:42:20;22.40;42.70
23311;DHT22;11828;51.508;18.118;2024-02-16T01:44:46;22.40;42.80
23311;DHT22;11828;51.508;18.118;2024-02-16T01:47:14;22.40;42.90
23311;DHT22;11828;51.508;18.118;2024-02-16T01:49:41;22.40;42.90
23311;DHT22;11828;51.508;18.118;2024-02-16T01:52:08;22.30;42.90
23311;DHT22;11828;51.508;18.118;2024-02-16T01:54:34;22.30;43.10
23311;DHT22;11828;51.508;18.118;2024-02-16T01:57:02;22.30;43.00
23311;DHT22;11828;51.508;18.118;2024-02-16T01:59:31;22.20;43.20
23311;DHT22;11828;51.508;18.118;2024-02-16T02:01:59;22.10;43.60
23311;DHT22;11828;51.508;18.118;2024-02-16T02:04:27;22.10;43.50
23311;DHT22;11828;51.508;18.118;2024-02-16T02:06:54;22.00;43.50
23311;DHT22;11828;51.508;18.118;2024-02-16T02:09:20;21.90;43.60
23311;DHT22;11828;51.508;18.118;2024-02-16T02:11:47;21.90;43.80
23311;DHT22;11828;51.508;18.118;2024-02-16T02:14:13;21.90;43.80
23311;DHT22;11828;51.508;18.118;2024-02-16T02:16:40;21.90;43.80
23311;DHT22;11828;51.508;18.118;2024-02-16T02:19:07;21.90;43.90
23311;DHT22;11828;51.508;18.118;2024-02-16T02:21:34;21.80;43.80
23311;DHT22;11828;51.508;18.118;2024-02-16T02:24:01;21.70;44.70
23311;DHT22;11828;51.508;18.118;2024-02-16T02:26:28;21.70;44.00
23311;DHT22;11828;51.508;18.118;2024-02-16T02:28:55;21.70;44.10
23311;DHT22;11828;51.508;18.118;2024-02-16T02:31:22;21.60;44.10
23311;DHT22;11828;51.508;18.118;2024-02-16T02:33:48;21.70;44.10
23311;DHT22;11828;51.508;18.118;2024-02-16T02:36:15;21.70;44.10
23311;DHT22;11828;51.508;18.118;2024-02-16T02:38:41;21.70;44.10
23311;DHT22;11828;51.508;18.118;2024-02-16T02:41:10;21.80;44.10
23311;DHT22;11828;51.508;18.118;2024-02-16T02:43:36;21.90;44.00
23311;DHT22;11828;51.508;18.118;2024-02-16T02:46:03;22.00;43.90
23311;DHT22;11828;51.508;18.118;2024-02-16T02:48:30;22.00;43.80
23311;DHT22;11828;51.508;18.118;2024-02-16T02:50:57;22.00;43.80
23311;DHT22;11828;51.508;18.118;2024-02-16T02:53:28;22.00;43.90
23311;DHT22;11828;51.508;18.118;2024-02-16T02:55:55;21.90;43.90
23311;DHT22;11828;51.508;18.118;2024-02-16T02:58:22;21.90;44.00
23311;DHT22;11828;51.508;18.118;2024-02-16T03:00:49;21.90;44.10
23311;DHT22;11828;51.508;18.118;2024-02-16T03:03:15;21.90;44.20
23311;DHT22;11828;51.508;18.118;2024-02-16T03:05:42;21.80;44.40
23311;DHT22;11828;51.508;18.118;2024-02-16T03:08:09;21.90;44.30
23311;DHT22;11828;51.508;18.118;2024-02-16T03:10:37;21.90;44.30
23311;DHT22;11828;51.508;18.118;2024-02-16T03:13:04;22.00;44.30
23311;DHT22;11828;51.508;18.118;2024-02-16T03:15:33;22.10;44.20
23311;DHT22;11828;51.508;18.118;2024-02-16T03:18:01;22.10;44.10
23311;DHT22;11828;51.508;18.118;2024-02-16T03:20:29;22.10;43.90
23311;DHT22;11828;51.508;18.118;2024-02-16T03:22:56;22.00;43.90
23311;DHT22;11828;51.508;18.118;2024-02-16T03:25:23;21.90;44.10
23311;DHT22;11828;51.508;18.118;2024-02-16T03:27:50;22.20;43.80
23311;DHT22;11828;51.508;18.118;2024-02-16T03:30:17;22.10;43.70
23311;DHT22;11828;51.508;18.118;2024-02-16T03:32:50;22.30;43.40
23311;DHT22;11828;51.508;18.118;2024-02-16T03:35:18;22.30;43.20
23311;DHT22;11828;51.508;18.118;2024-02-16T03:37:45;22.40;43.00
23311;DHT22;11828;51.508;18.118;2024-02-16T03:40:12;22.50;42.80
23311;DHT22;11828;51.508;18.118;2024-02-16T03:42:41;22.60;42.70
23311;DHT22;11828;51.508;18.118;2024-02-16T03:45:09;22.60;42.60
23311;DHT22;11828;51.508;18.118;2024-02-16T03:47:40;22.60;42.50
23311;DHT22;11828;51.508;18.118;2024-02-16T03:50:08;22.70;42.40
23311;DHT22;11828;51.508;18.118;2024-02-16T03:52:34;22.80;42.10
23311;DHT22;11828;51.508;18.118;2024-02-16T03:55:01;22.80;42.00
23311;DHT22;11828;51.508;18.118;2024-02-16T03:57:31;22.80;42.00
23311;DHT22;11828;51.508;18.118;2024-02-16T03:59:57;22.90;41.80
23311;DHT22;11828;51.508;18.118;2024-02-16T04:02:24;23.00;41.60
23311;DHT22;11828;51.508;18.118;2024-02-16T04:04:51;23.00;42.20
23311;DHT22;11828;51.508;18.118;2024-02-16T04:07:18;23.00;41.40
23311;DHT22;11828;51.508;18.118;2024-02-16T04:09:45;23.00;41.40
23311;DHT22;11828;51.508;18.118;2024-02-16T04:12:12;23.00;41.30
23311;DHT22;11828;51.508;18.118;2024-02-16T04:14:38;22.90;41.30
23311;DHT22;11828;51.508;18.118;2024-02-16T04:17:05;23.00;41.40
23311;DHT22;11828;51.508;18.118;2024-02-16T04:19:31;22.90;41.10
23311;DHT22;11828;51.508;18.118;2024-02-16T04:21:58;22.90;41.10
23311;DHT22;11828;51.508;18.118;2024-02-16T04:24:25;22.90;41.10
23311;DHT22;11828;51.508;18.118;2024-02-16T04:26:52;23.00;41.00
23311;DHT22;11828;51.508;18.118;2024-02-16T04:29:19;22.90;40.90
23311;DHT22;11828;51.508;18.118;2024-02-16T04:31:45;22.80;41.00
23311;DHT22;11828;51.508;18.118;2024-02-16T04:34:14;22.80;41.00
23311;DHT22;11828;51.508;18.118;2024-02-16T04:36:40;22.80;41.10
23311;DHT22;11828;51.508;18.118;2024-02-16T04:39:08;22.70;41.10
23311;DHT22;11828;51.508;18.118;2024-02-16T04:41:36;22.70;41.00
23311;DHT22;11828;51.508;18.118;2024-02-16T04:44:02;22.60;41.20
23311;DHT22;11828;51.508;18.118;2024-02-16T04:46:29;22.60;41.20
23311;DHT22;11828;51.508;18.118;2024-02-16T04:48:56;22.60;41.20
23311;DHT22;11828;51.508;18.118;2024-02-16T04:51:23;22.60;41.20
23311;DHT22;11828;51.508;18.118;2024-02-16T04:53:50;22.60;41.20
23311;DHT22;11828;51.508;18.118;2024-02-16T04:56:16;22.50;41.20
23311;DHT22;11828;51.508;18.118;2024-02-16T04:58:43;22.60;41.20
23311;DHT22;11828;51.508;18.118;2024-02-16T05:01:10;22.50;41.30
23311;DHT22;11828;51.508;18.118;2024-02-16T05:03:36;22.50;41.20
23311;DHT22;11828;51.508;18.118;2024-02-16T05:06:06;22.50;41.20
23311;DHT22;11828;51.508;18.118;2024-02-16T05:08:32;22.50;41.10
23311;DHT22;11828;51.508;18.118;2024-02-16T05:11:00;22.60;41.10
23311;DHT22;11828;51.508;18.118;2024-02-16T05:13:28;22.60;40.90
23311;DHT22;11828;51.508;18.118;2024-02-16T05:15:54;22.60;40.80
23311;DHT22;11828;51.508;18.118;2024-02-16T05:18:22;22.70;40.60
23311;DHT22;11828;51.508;18.118;2024-02-16T05:20:48;22.80;40.60
23311;DHT22;11828;51.508;18.118;2024-02-16T05:23:15;22.80;40.50
23311;DHT22;11828;51.508;18.118;2024-02-16T05:25:42;22.80;41.10
23311;DHT22;11828;51.508;18.118;2024-02-16T05:28:09;22.80;40.40
23311;DHT22;11828;51.508;18.118;2024-02-16T05:30:35;22.80;40.40
23311;DHT22;11828;51.508;18.118;2024-02-16T05:33:03;22.70;40.40
23311;DHT22;11828;51.508;18.118;2024-02-16T05:35:29;22.60;40.40
23311;DHT22;11828;51.508;18.118;2024-02-16T05:37:59;22.70;40.50
23311;DHT22;11828;51.508;18.118;2024-02-16T05:40:32;22.60;40.50
23311;DHT22;11828;51.508;18.118;2024-02-16T05:43:11;22.50;40.60
23311;DHT22;11828;51.508;18.118;2024-02-16T05:45:37;22.40;40.70
23311;DHT22;11828;51.508;18.118;2024-02-16T05:48:07;22.30;40.90
23311;DHT22;11828;51.508;18.118;2024-02-16T05:50:36;22.10;41.10
23311;DHT22;11828;51.508;18.118;2024-02-16T05:53:09;22.10;41.20
23311;DHT22;11828;51.508;18.118;2024-02-16T05:55:36;22.10;41.30
23311;DHT22;11828;51.508;18.118;2024-02-16T05:58:03;22.00;41.20
23311;DHT22;11828;51.508;18.118;2024-02-16T06:00:33;21.90;41.20
23311;DHT22;11828;51.508;18.118;2024-02-16T06:03:00;21.80;41.20
23311;DHT22;11828;51.508;18.118;2024-02-16T06:05:27;21.70;41.40
23311;DHT22;11828;51.508;18.118;2024-02-16T06:07:54;21.60;41.50
23311;DHT22;11828;51.508;18.118;2024-02-16T06:10:22;21.60;41.50
23311;DHT22;11828;51.508;18.118;2024-02-16T06:12:49;21.60;41.40
23311;DHT22;11828;51.508;18.118;2024-02-16T06:15:15;21.60;41.40
23311;DHT22;11828;51.508;18.118;2024-02-16T06:17:42;21.60;41.40
23311;DHT22;11828;51.508;18.118;2024-02-16T06:20:09;21.70;41.40
23311;DHT22;11828;51.508;18.118;2024-02-16T06:22:37;21.60;41.40
23311;DHT22;11828;51.508;18.118;2024-02-16T06:25:04;21.60;41.60
23311;DHT22;11828;51.508;18.118;2024-02-16T06:27:31;21.50;41.70
23311;DHT22;11828;51.508;18.118;2024-02-16T06:29:58;21.40;42.10
23311;DHT22;11828;51.508;18.118;2024-02-16T06:32:24;21.50;42.50
23311;DHT22;11828;51.508;18.118;2024-02-16T06:34:52;21.50;42.60
23311;DHT22;11828;51.508;18.118;2024-02-16T06:37:19;21.70;42.60
23311;DHT22;11828;51.508;18.118;2024-02-16T06:39:46;21.80;42.40
23311;DHT22;11828;51.508;18.118;2024-02-16T06:42:13;21.90;42.20
23311;DHT22;11828;51.508;18.118;2024-02-16T06:44:40;22.10;42.10
23311;DHT22;11828;51.508;18.118;2024-02-16T06:47:07;22.40;42.00
23311;DHT22;11828;51.508;18.118;2024-02-16T06:49:34;22.60;41.70
23311;DHT22;11828;51.508;18.118;2024-02-16T06:52:01;22.80;41.40
23311;DHT22;11828;51.508;18.118;2024-02-16T06:54:28;23.20;41.00
23311;DHT22;11828;51.508;18.118;2024-02-16T06:56:54;23.50;40.50
23311;DHT22;11828;51.508;18.118;2024-02-16T06:59:21;23.80;40.10
23311;DHT22;11828;51.508;18.118;2024-02-16T07:01:48;24.00;39.70
23311;DHT22;11828;51.508;18.118;2024-02-16T07:04:14;24.20;39.50
23311;DHT22;11828;51.508;18.118;2024-02-16T07:06:41;24.50;39.10
23311;DHT22;11828;51.508;18.118;2024-02-16T07:09:08;25.00;39.30
23311;DHT22;11828;51.508;18.118;2024-02-16T07:11:35;25.20;38.20
23311;DHT22;11828;51.508;18.118;2024-02-16T07:14:01;25.30;37.80
23311;DHT22;11828;51.508;18.118;2024-02-16T07:16:28;25.20;37.60
23311;DHT22;11828;51.508;18.118;2024-02-16T07:18:55;25.20;37.80
23311;DHT22;11828;51.508;18.118;2024-02-16T07:21:22;25.20;37.50
23311;DHT22;11828;51.508;18.118;2024-02-16T07:23:48;25.00;37.60
23311;DHT22;11828;51.508;18.118;2024-02-16T07:26:15;25.00;37.30
23311;DHT22;11828;51.508;18.118;2024-02-16T07:28:43;24.90;37.70
23311;DHT22;11828;51.508;18.118;2024-02-16T07:31:10;24.90;38.00
23311;DHT22;11828;51.508;18.118;2024-02-16T07:33:36;24.90;38.10
23311;DHT22;11828;51.508;18.118;2024-02-16T07:36:03;24.90;38.00
23311;DHT22;11828;51.508;18.118;2024-02-16T07:38:30;25.20;37.70
23311;DHT22;11828;51.508;18.118;2024-02-16T07:40:57;25.40;37.80
23311;DHT22;11828;51.508;18.118;2024-02-16T07:43:26;25.80;37.40
23311;DHT22;11828;51.508;18.118;2024-02-16T07:45:53;26.20;37.30
23311;DHT22;11828;51.508;18.118;2024-02-16T07:48:20;26.60;36.50
23311;DHT22;11828;51.508;18.118;2024-02-16T07:50:47;26.90;36.10
23311;DHT22;11828;51.508;18.118;2024-02-16T07:53:16;27.20;36.00
23311;DHT22;11828;51.508;18.118;2024-02-16T07:55:43;27.60;35.60
23311;DHT22;11828;51.508;18.118;2024-02-16T07:58:09;28.00;35.20
23311;DHT22;11828;51.508;18.118;2024-02-16T08:00:36;28.50;34.40
23311;DHT22;11828;51.508;18.118;2024-02-16T08:03:02;28.90;33.60
23311;DHT22;11828;51.508;18.118;2024-02-16T08:05:29;29.20;33.30
23311;DHT22;11828;51.508;18.118;2024-02-16T08:07:56;29.50;32.90
23311;DHT22;11828;51.508;18.118;2024-02-16T08:10:23;29.80;32.60
23311;DHT22;11828;51.508;18.118;2024-02-16T08:12:51;30.10;31.90
23311;DHT22;11828;51.508;18.118;2024-02-16T08:15:18;30.40;31.80
23311;DHT22;11828;51.508;18.118;2024-02-16T08:17:52;30.60;31.60
23311;DHT22;11828;51.508;18.118;2024-02-16T08:20:19;31.00;31.40
23311;DHT22;11828;51.508;18.118;2024-02-16T08:22:46;31.40;30.60
23311;DHT22;11828;51.508;18.118;2024-02-16T08:25:13;31.30;30.00
23311;DHT22;11828;51.508;18.118;2024-02-16T08:27:42;31.40;30.60
23311;DHT22;11828;51.508;18.118;2024-02-16T08:30:09;31.70;30.30
23311;DHT22;11828;51.508;18.118;2024-02-16T08:32:37;31.90;29.70
23311;DHT22;11828;51.508;18.118;2024-02-16T08:35:03;32.00;30.20
23311;DHT22;11828;51.508;18.118;2024-02-16T08:37:31;32.10;29.50
23311;DHT22;11828;51.508;18.118;2024-02-16T08:39:58;32.10;29.40
23311;DHT22;11828;51.508;18.118;2024-02-16T08:42:24;32.10;29.50
23311;DHT22;11828;51.508;18.118;2024-02-16T08:44:51;32.10;29.50
23311;DHT22;11828;51.508;18.118;2024-02-16T08:47:18;32.00;29.60
23311;DHT22;11828;51.508;18.118;2024-02-16T08:49:45;32.10;29.30
23311;DHT22;11828;51.508;18.118;2024-02-16T08:52:11;32.50;29.30
23311;DHT22;11828;51.508;18.118;2024-02-16T08:54:38;32.70;28.70
23311;DHT22;11828;51.508;18.118;2024-02-16T08:57:04;32.90;29.00
23311;DHT22;11828;51.508;18.118;2024-02-16T08:59:31;33.10;28.70
23311;DHT22;11828;51.508;18.118;2024-02-16T09:01:59;33.40;28.90
23311;DHT22;11828;51.508;18.118;2024-02-16T09:04:26;33.90;28.80
23311;DHT22;11828;51.508;18.118;2024-02-16T09:06:53;34.40;28.00
23311;DHT22;11828;51.508;18.118;2024-02-16T09:09:19;34.80;27.90
23311;DHT22;11828;51.508;18.118;2024-02-16T09:11:46;35.20;27.00
23311;DHT22;11828;51.508;18.118;2024-02-16T09:14:13;35.40;26.70
23311;DHT22;11828;51.508;18.118;2024-02-16T09:16:39;35.40;26.60
23311;DHT22;11828;51.508;18.118;2024-02-16T09:19:06;35.40;26.30
23311;DHT22;11828;51.508;18.118;2024-02-16T09:21:33;35.50;26.40
23311;DHT22;11828;51.508;18.118;2024-02-16T09:24:00;35.90;26.00
23311;DHT22;11828;51.508;18.118;2024-02-16T09:26:30;35.90;25.80
23311;DHT22;11828;51.508;18.118;2024-02-16T09:28:59;36.00;25.80
23311;DHT22;11828;51.508;18.118;2024-02-16T09:31:25;35.70;25.70
23311;DHT22;11828;51.508;18.118;2024-02-16T09:33:52;35.50;25.50
23311;DHT22;11828;51.508;18.118;2024-02-16T09:36:19;35.30;25.80
23311;DHT22;11828;51.508;18.118;2024-02-16T09:38:46;35.20;25.70
23311;DHT22;11828;51.508;18.118;2024-02-16T09:41:13;35.20;26.30
23311;DHT22;11828;51.508;18.118;2024-02-16T09:43:40;35.40;26.30
23311;DHT22;11828;51.508;18.118;2024-02-16T09:46:08;35.50;25.90
23311;DHT22;11828;51.508;18.118;2024-02-16T09:48:40;35.20;25.60
23311;DHT22;11828;51.508;18.118;2024-02-16T09:51:08;34.70;25.90
23311;DHT22;11828;51.508;18.118;2024-02-16T09:53:34;34.50;25.90
23311;DHT22;11828;51.508;18.118;2024-02-16T09:56:01;34.30;26.20
23311;DHT22;11828;51.508;18.118;2024-02-16T09:58:28;34.00;26.30
23311;DHT22;11828;51.508;18.118;2024-02-16T10:00:55;33.70;26.50
23311;DHT22;11828;51.508;18.118;2024-02-16T10:03:27;33.50;26.80
23311;DHT22;11828;51.508;18.118;2024-02-16T10:06:08;33.60;27.20
23311;DHT22;11828;51.508;18.118;2024-02-16T10:08:54;33.50;27.10
23311;DHT22;11828;51.508;18.118;2024-02-16T10:11:23;33.60;27.90
23311;DHT22;11828;51.508;18.118;2024-02-16T10:14:03;34.00;27.10
23311;DHT22;11828;51.508;18.118;2024-02-16T10:16:30;34.40;26.90
23311;DHT22;11828;51.508;18.118;2024-02-16T10:19:08;34.50;26.20
23311;DHT22;11828;51.508;18.118;2024-02-16T10:21:37;34.30;26.20
23311;DHT22;11828;51.508;18.118;2024-02-16T10:24:06;34.10;26.20
23311;DHT22;11828;51.508;18.118;2024-02-16T10:26:37;33.60;26.50
23311;DHT22;11828;51.508;18.118;2024-02-16T10:29:05;33.30;27.00
23311;DHT22;11828;51.508;18.118;2024-02-16T10:31:34;33.00;27.70
23311;DHT22;11828;51.508;18.118;2024-02-16T10:34:05;32.90;27.60
23311;DHT22;11828;51.508;18.118;2024-02-16T10:36:33;33.10;27.70
23311;DHT22;11828;51.508;18.118;2024-02-16T10:39:01;33.20;27.80
23311;DHT22;11828;51.508;18.118;2024-02-16T10:41:48;33.20;26.90
23311;DHT22;11828;51.508;18.118;2024-02-16T10:44:15;33.10;26.80
23311;DHT22;11828;51.508;18.118;2024-02-16T10:46:42;33.00;26.90
23311;DHT22;11828;51.508;18.118;2024-02-16T10:49:08;32.80;27.00
23311;DHT22;11828;51.508;18.118;2024-02-16T10:51:39;32.30;27.20
23311;DHT22;11828;51.508;18.118;2024-02-16T10:54:08;32.00;27.70
23311;DHT22;11828;51.508;18.118;2024-02-16T10:56:40;31.90;27.80
23311;DHT22;11828;51.508;18.118;2024-02-16T10:59:10;31.60;28.20
23311;DHT22;11828;51.508;18.118;2024-02-16T11:01:44;31.70;28.40
23311;DHT22;11828;51.508;18.118;2024-02-16T11:04:16;31.70;28.40
23311;DHT22;11828;51.508;18.118;2024-02-16T11:06:54;31.40;28.30
23311;DHT22;11828;51.508;18.118;2024-02-16T11:09:26;31.00;28.80
23311;DHT22;11828;51.508;18.118;2024-02-16T11:11:54;30.60;29.20
23311;DHT22;11828;51.508;18.118;2024-02-16T11:14:22;30.10;29.60
23311;DHT22;11828;51.508;18.118;2024-02-16T11:17:11;30.10;30.00
23311;DHT22;11828;51.508;18.118;2024-02-16T11:19:41;30.10;29.90
23311;DHT22;11828;51.508;18.118;2024-02-16T11:22:14;30.30;30.40
23311;DHT22;11828;51.508;18.118;2024-02-16T11:24:48;30.60;29.50
23311;DHT22;11828;51.508;18.118;2024-02-16T11:27:16;30.80;29.30
23311;DHT22;11828;51.508;18.118;2024-02-16T11:29:46;30.90;29.10
23311;DHT22;11828;51.508;18.118;2024-02-16T11:32:13;31.00;29.10
23311;DHT22;11828;51.508;18.118;2024-02-16T11:34:40;31.00;28.90
23311;DHT22;11828;51.508;18.118;2024-02-16T11:37:06;30.80;28.90
23311;DHT22;11828;51.508;18.118;2024-02-16T11:39:34;30.70;29.00
23311;DHT22;11828;51.508;18.118;2024-02-16T11:42:10;30.60;29.10
23311;DHT22;11828;51.508;18.118;2024-02-16T11:44:39;30.60;29.30
23311;DHT22;11828;51.508;18.118;2024-02-16T11:47:08;30.60;29.30
23311;DHT22;11828;51.508;18.118;2024-02-16T11:49:38;30.70;29.20
23311;DHT22;11828;51.508;18.118;2024-02-16T11:52:05;30.70;29.30
23311;DHT22;11828;51.508;18.118;2024-02-16T11:54:32;30.80;29.10
23311;DHT22;11828;51.508;18.118;2024-02-16T11:56:58;31.00;29.40
23311;DHT22;11828;51.508;18.118;2024-02-16T11:59:25;31.20;29.20
23311;DHT22;11828;51.508;18.118;2024-02-16T12:01:56;31.30;28.90
23311;DHT22;11828;51.508;18.118;2024-02-16T12:04:29;31.50;29.20
23311;DHT22;11828;51.508;18.118;2024-02-16T12:07:01;31.60;28.80
23311;DHT22;11828;51.508;18.118;2024-02-16T12:09:28;31.60;28.80
23311;DHT22;11828;51.508;18.118;2024-02-16T12:11:55;31.90;28.80
23311;DHT22;11828;51.508;18.118;2024-02-16T12:14:22;32.10;28.10
23311;DHT22;11828;51.508;18.118;2024-02-16T12:16:55;32.20;28.30
23311;DHT22;11828;51.508;18.118;2024-02-16T12:19:23;32.60;27.80
23311;DHT22;11828;51.508;18.118;2024-02-16T12:21:53;33.00;27.70
23311;DHT22;11828;51.508;18.118;2024-02-16T12:24:20;33.30;27.20
23311;DHT22;11828;51.508;18.118;2024-02-16T12:26:47;33.70;27.00
23311;DHT22;11828;51.508;18.118;2024-02-16T12:29:14;34.20;26.80
23311;DHT22;11828;51.508;18.118;2024-02-16T12:31:40;34.50;26.40
23311;DHT22;11828;51.508;18.118;2024-02-16T12:34:07;34.70;25.90
23311;DHT22;11828;51.508;18.118;2024-02-16T12:36:34;34.70;26.40
23311;DHT22;11828;51.508;18.118;2024-02-16T12:39:02;34.70;26.10
23311;DHT22;11828;51.508;18.118;2024-02-16T12:41:33;34.60;25.80
23311;DHT22;11828;51.508;18.118;2024-02-16T12:44:00;34.40;26.50
23311;DHT22;11828;51.508;18.118;2024-02-16T12:46:26;34.00;25.90
23311;DHT22;11828;51.508;18.118;2024-02-16T12:48:56;33.90;26.30
23311;DHT22;11828;51.508;18.118;2024-02-16T12:51:23;33.80;26.30
23311;DHT22;11828;51.508;18.118;2024-02-16T12:53:50;33.60;26.20
23311;DHT22;11828;51.508;18.118;2024-02-16T12:56:16;33.40;26.60
23311;DHT22;11828;51.508;18.118;2024-02-16T12:58:43;33.60;26.80
23311;DHT22;11828;51.508;18.118;2024-02-16T13:01:10;33.70;26.60
23311;DHT22;11828;51.508;18.118;2024-02-16T13:03:38;33.90;26.60
23311;DHT22;11828;51.508;18.118;2024-02-16T13:06:07;33.90;26.30
23311;DHT22;11828;51.508;18.118;2024-02-16T13:08:34;33.80;26.30
23311;DHT22;11828;51.508;18.118;2024-02-16T13:11:02;33.70;26.60
23311;DHT22;11828;51.508;18.118;2024-02-16T13:13:29;33.40;26.50
23311;DHT22;11828;51.508;18.118;2024-02-16T13:15:55;33.20;26.80
23311;DHT22;11828;51.508;18.118;2024-02-16T13:18:24;33.20;26.80
23311;DHT22;11828;51.508;18.118;2024-02-16T13:20:51;33.10;26.30
23311;DHT22;11828;51.508;18.118;2024-02-16T13:23:18;33.10;26.30
23311;DHT22;11828;51.508;18.118;2024-02-16T13:25:45;33.20;26.40
23311;DHT22;11828;51.508;18.118;2024-02-16T13:28:12;33.40;26.30
23311;DHT22;11828;51.508;18.118;2024-02-16T13:30:38;33.30;26.80
23311;DHT22;11828;51.508;18.118;2024-02-16T13:33:05;33.00;26.40
23311;DHT22;11828;51.508;18.118;2024-02-16T13:35:34;32.60;26.80
23311;DHT22;11828;51.508;18.118;2024-02-16T13:38:01;32.20;27.00
23311;DHT22;11828;51.508;18.118;2024-02-16T13:40:28;31.70;27.50
23311;DHT22;11828;51.508;18.118;2024-02-16T13:42:54;31.40;27.90
23311;DHT22;11828;51.508;18.118;2024-02-16T13:45:50;31.00;28.40
23311;DHT22;11828;51.508;18.118;2024-02-16T13:48:18;31.10;28.80
23311;DHT22;11828;51.508;18.118;2024-02-16T13:50:49;31.70;28.60
23311;DHT22;11828;51.508;18.118;2024-02-16T13:53:16;32.10;28.40
23311;DHT22;11828;51.508;18.118;2024-02-16T13:55:43;32.50;28.60
23311;DHT22;11828;51.508;18.118;2024-02-16T13:58:11;32.90;28.40
23311;DHT22;11828;51.508;18.118;2024-02-16T14:00:37;33.40;27.50
23311;DHT22;11828;51.508;18.118;2024-02-16T14:03:08;33.80;27.20
23311;DHT22;11828;51.508;18.118;2024-02-16T14:05:40;34.00;26.90
23311;DHT22;11828;51.508;18.118;2024-02-16T14:08:07;34.10;27.30
23311;DHT22;11828;51.508;18.118;2024-02-16T14:10:37;34.10;26.80
23311;DHT22;11828;51.508;18.118;2024-02-16T14:13:04;34.10;26.80
23311;DHT22;11828;51.508;18.118;2024-02-16T14:15:31;34.00;27.00
23311;DHT22;11828;51.508;18.118;2024-02-16T14:17:57;33.90;26.90
23311;DHT22;11828;51.508;18.118;2024-02-16T14:20:24;33.80;27.10
23311;DHT22;11828;51.508;18.118;2024-02-16T14:22:50;33.60;27.00
23311;DHT22;11828;51.508;18.118;2024-02-16T14:25:17;33.20;26.90
23311;DHT22;11828;51.508;18.118;2024-02-16T14:27:44;32.80;27.60
23311;DHT22;11828;51.508;18.118;2024-02-16T14:30:12;32.70;27.40
23311;DHT22;11828;51.508;18.118;2024-02-16T14:32:39;32.50;27.70
23311;DHT22;11828;51.508;18.118;2024-02-16T14:35:08;32.50;27.80
23311;DHT22;11828;51.508;18.118;2024-02-16T14:37:35;32.20;27.70
23311;DHT22;11828;51.508;18.118;2024-02-16T14:40:01;32.00;28.00
23311;DHT22;11828;51.508;18.118;2024-02-16T14:42:29;31.80;28.20
23311;DHT22;11828;51.508;18.118;2024-02-16T14:44:56;31.60;28.50
23311;DHT22;11828;51.508;18.118;2024-02-16T14:47:23;31.30;28.70
23311;DHT22;11828;51.508;18.118;2024-02-16T14:49:50;30.90;29.00
23311;DHT22;11828;51.508;18.118;2024-02-16T14:52:16;30.80;29.10
23311;DHT22;11828;51.508;18.118;2024-02-16T14:54:43;30.40;29.30
23311;DHT22;11828;51.508;18.118;2024-02-16T14:57:09;30.30;29.50
23311;DHT22;11828;51.508;18.118;2024-02-16T14:59:36;30.10;29.40
23311;DHT22;11828;51.508;18.118;2024-02-16T15:02:03;29.90;29.40
23311;DHT22;11828;51.508;18.118;2024-02-16T15:04:29;29.60;29.70
23311;DHT22;11828;51.508;18.118;2024-02-16T15:06:56;29.40;29.90
23311;DHT22;11828;51.508;18.118;2024-02-16T15:09:22;29.10;30.30
23311;DHT22;11828;51.508;18.118;2024-02-16T15:11:49;28.90;30.70
23311;DHT22;11828;51.508;18.118;2024-02-16T15:14:16;28.80;31.00
23311;DHT22;11828;51.508;18.118;2024-02-16T15:16:42;28.70;31.20
23311;DHT22;11828;51.508;18.118;2024-02-16T15:19:09;28.70;31.40